Musette — WDB9800 — position and weather

sailwx.info

Track history (hours):
 
Tides and Currents Weather Stations Pressure Air Temp Water Temp Dewpoint Dewpoint Depression Visibility Wind Speed Wind Dir Waves Ship Positions

Musette

Owner: Carfi Enterprises, Wellington, FL. More information available from US FCC via Universal Licensing System and Coast Guard Vessel Documentation Center.

Last reported at 2017-Dec-11 04:43 UTC. Time now 2017-Dec-15 14:23 UTC.
Position N 26°07' W 080°08'.

; draft 2 m.

Type: Ship. MMSI: 366983050.

Date/timePositionNaut miles runAvg speedWind from/ knotsBaromVisibWave heightAir tempDewpointWater temp
2017-Dec-11 04:43N 26°07' W 080°08'0 2.3
2017-Dec-11 04:30N 26°07' W 080°08'2 3.8
2017-Dec-11 04:00N 26°08' W 080°06'3 6.0
2017-Dec-11 03:31N 26°11' W 080°06'3 5.1
2017-Dec-11 02:59N 26°14' W 080°06'2 4.7
2017-Dec-11 02:30N 26°16' W 080°05'3 4.8
2017-Dec-11 01:58N 26°19' W 080°05'0 0.0
2017-Dec-11 01:30N 26°19' W 080°05'1 1.8
2017-Dec-11 00:55N 26°18' W 080°05'1 2.7
2017-Dec-11 00:29N 26°19' W 080°05'3 5.4
2017-Dec-11 00:00N 26°16' W 080°05'3 4.8
2017-Dec-10 23:26N 26°14' W 080°06'2 1.3
2017-Dec-10 22:12N 26°15' W 080°05'0 0.4
2017-Dec-10 22:00N 26°15' W 080°05'3 6.4
2017-Dec-10 21:30N 26°18' W 080°05'0 0.6
2017-Dec-10 20:58N 26°19' W 080°05'0 0.3
2017-Dec-10 20:28N 26°19' W 080°05'0 0.6
2017-Dec-10 20:00N 26°18' W 080°05'1 1.4
2017-Dec-10 19:29N 26°18' W 080°05'2 4.1
2017-Dec-10 18:59N 26°16' W 080°05'2 4.1
2017-Dec-10 18:30N 26°14' W 080°06'3 5.2
2017-Dec-10 18:00N 26°11' W 080°06'3 6.2
2017-Dec-10 17:31N 26°08' W 080°07'1 3.0
2017-Dec-10 17:00N 26°07' W 080°07'1 2.5
2017-Dec-10 16:30N 26°07' W 080°08'0 0.0
2017-Dec-10 04:19N 26°07' W 080°08'0 0.0
2017-Dec-10 04:00N 26°07' W 080°08'2 3.0
2017-Dec-10 03:30N 26°07' W 080°07'3 5.2
2017-Dec-10 03:00N 26°09' W 080°06'2 4.9
2017-Dec-10 02:30N 26°12' W 080°06'1 1.6
2017-Dec-10 01:57N 26°13' W 080°06'2 4.4
2017-Dec-10 01:30N 26°11' W 080°06'2 3.2
2017-Dec-10 01:00N 26°09' W 080°06'1 2.9
2017-Dec-10 00:30N 26°08' W 080°06'1 2.4
2017-Dec-10 00:00N 26°07' W 080°08'1 0.0
2017-Dec-09 04:48N 26°07' W 080°08'0 1.6
2017-Dec-09 04:30N 26°07' W 080°08'1 1.9
2017-Dec-09 04:00N 26°06' W 080°07'1 1.1
2017-Dec-09 03:30N 26°07' W 080°07'2 3.5
2017-Dec-09 03:00N 26°08' W 080°06'1 2.5
2017-Dec-09 02:30N 26°10' W 080°06'1 3.0
2017-Dec-09 02:00N 26°08' W 080°07'2 3.0
2017-Dec-09 01:30N 26°07' W 080°07'1 2.5
2017-Dec-09 01:00N 26°07' W 080°08'0 0.0
2017-Dec-09 00:30N 26°07' W 080°08'0 0.0
2017-Dec-08 05:22N 26°07' W 080°08'1 1.5
2017-Dec-08 05:00N 26°07' W 080°08'1 2.5
2017-Dec-08 04:30N 26°06' W 080°07'1 1.3
2017-Dec-08 04:00N 26°06' W 080°06'1 2.4
2017-Dec-08 03:30N 26°07' W 080°07'1 2.6
2017-Dec-08 03:00N 26°08' W 080°07'2 4.5
2017-Dec-08 02:30N 26°06' W 080°07'2 3.5
2017-Dec-08 02:00N 26°07' W 080°08'0 0.0
2017-Dec-08 01:30N 26°07' W 080°08'0 0.0
2017-Dec-08 01:00N 26°07' W 080°08'0 0.0
2017-Dec-08 00:30N 26°07' W 080°08'0 0.0
2017-Dec-08 00:00N 26°07' W 080°08'0 0.0
2017-Dec-07 23:30N 26°07' W 080°08'0 0.0
2017-Dec-07 23:00N 26°07' W 080°08'  
2017-Dec-04 02:49N 26°07' W 080°08'1 2.8
2017-Dec-04 02:30N 26°07' W 080°07'0 0.7
2017-Dec-04 02:00N 26°07' W 080°07'2 3.4
2017-Dec-04 01:30N 26°08' W 080°06'1 2.6
2017-Dec-04 01:00N 26°10' W 080°06'2 3.2
2017-Dec-04 00:30N 26°08' W 080°07'1 2.7
2017-Dec-04 00:00N 26°07' W 080°07'2 3.1
2017-Dec-03 23:30N 26°07' W 080°08'0 0.0
2017-Dec-03 23:00N 26°07' W 080°08'0 0.0
2017-Dec-03 22:30N 26°07' W 080°08'0 0.0
2017-Dec-03 22:00N 26°07' W 080°08'0 0.0
2017-Dec-03 21:30N 26°07' W 080°08'0 0.0
2017-Dec-03 21:00N 26°07' W 080°08'0 0.0
2017-Dec-03 20:30N 26°07' W 080°08'0 0.0
2017-Dec-03 03:38N 26°07' W 080°08'0 0.0
2017-Dec-03 03:30N 26°07' W 080°08'0 0.0
2017-Dec-03 02:58N 26°07' W 080°08'1 2.1
2017-Dec-03 02:30N 26°07' W 080°07'0 0.5
2017-Dec-03 02:00N 26°07' W 080°07'2 3.6
2017-Dec-03 01:30N 26°08' W 080°06'1 2.7
2017-Dec-03 01:00N 26°10' W 080°06'2 3.2
2017-Dec-03 00:30N 26°08' W 080°07'1 2.9
2017-Dec-02 23:59N 26°07' W 080°07'1 2.7
2017-Dec-02 23:30N 26°07' W 080°08'0 0.0
2017-Dec-02 23:00N 26°07' W 080°08'0 0.0
2017-Dec-02 22:30N 26°07' W 080°08'0 0.0
2017-Dec-02 04:24N 26°07' W 080°08'0 0.0
2017-Dec-02 04:00N 26°07' W 080°08'1 1.5
2017-Dec-02 03:30N 26°07' W 080°07'1 1.9
2017-Dec-02 03:00N 26°08' W 080°07'1 2.1
2017-Dec-02 02:30N 26°07' W 080°07'2 3.2
2017-Dec-02 02:00N 26°05' W 080°07'0 0.3
2017-Dec-02 01:30N 26°05' W 080°07'2 4.4
2017-Dec-02 01:00N 26°07' W 080°08'0 0.7
2017-Dec-02 00:29N 26°07' W 080°08'  
Track history (hours):
 
Tides and Currents Weather Stations Pressure Air Temp Water Temp Dewpoint Dewpoint Depression Visibility Wind Speed Wind Dir Waves Ship Positions

Musette

Owner: Carfi Enterprises, Wellington, FL. More information available from US FCC via Universal Licensing System and Coast Guard Vessel Documentation Center.

Last reported at 2017-Dec-11 04:43 UTC. Time now 2017-Dec-15 14:23 UTC.
Position N 26°07' W 080°08'.

; draft 2 m.

Type: Ship. MMSI: 366983050.

Date/timePositionNaut miles runAvg speedWind from/ knotsBaromVisibWave heightAir tempDewpointWater temp
2017-Dec-11 04:43N 26°07' W 080°08'0 2.3
2017-Dec-11 04:30N 26°07' W 080°08'2 3.8
2017-Dec-11 04:00N 26°08' W 080°06'3 6.0
2017-Dec-11 03:31N 26°11' W 080°06'3 5.1
2017-Dec-11 02:59N 26°14' W 080°06'2 4.7
2017-Dec-11 02:30N 26°16' W 080°05'3 4.8
2017-Dec-11 01:58N 26°19' W 080°05'0 0.0
2017-Dec-11 01:30N 26°19' W 080°05'1 1.8
2017-Dec-11 00:55N 26°18' W 080°05'1 2.7
2017-Dec-11 00:29N 26°19' W 080°05'3 5.4
2017-Dec-11 00:00N 26°16' W 080°05'3 4.8
2017-Dec-10 23:26N 26°14' W 080°06'2 1.3
2017-Dec-10 22:12N 26°15' W 080°05'0 0.4
2017-Dec-10 22:00N 26°15' W 080°05'3 6.4
2017-Dec-10 21:30N 26°18' W 080°05'0 0.6
2017-Dec-10 20:58N 26°19' W 080°05'0 0.3
2017-Dec-10 20:28N 26°19' W 080°05'0 0.6
2017-Dec-10 20:00N 26°18' W 080°05'1 1.4
2017-Dec-10 19:29N 26°18' W 080°05'2 4.1
2017-Dec-10 18:59N 26°16' W 080°05'2 4.1
2017-Dec-10 18:30N 26°14' W 080°06'3 5.2
2017-Dec-10 18:00N 26°11' W 080°06'3 6.2
2017-Dec-10 17:31N 26°08' W 080°07'1 3.0
2017-Dec-10 17:00N 26°07' W 080°07'1 2.5
2017-Dec-10 16:30N 26°07' W 080°08'0 0.0
2017-Dec-10 04:19N 26°07' W 080°08'0 0.0
2017-Dec-10 04:00N 26°07' W 080°08'2 3.0
2017-Dec-10 03:30N 26°07' W 080°07'3 5.2
2017-Dec-10 03:00N 26°09' W 080°06'2 4.9
2017-Dec-10 02:30N 26°12' W 080°06'1 1.6
2017-Dec-10 01:57N 26°13' W 080°06'2 4.4
2017-Dec-10 01:30N 26°11' W 080°06'2 3.2
2017-Dec-10 01:00N 26°09' W 080°06'1 2.9
2017-Dec-10 00:30N 26°08' W 080°06'1 2.4
2017-Dec-10 00:00N 26°07' W 080°08'1 0.0
2017-Dec-09 04:48N 26°07' W 080°08'0 1.6
2017-Dec-09 04:30N 26°07' W 080°08'1 1.9
2017-Dec-09 04:00N 26°06' W 080°07'1 1.1
2017-Dec-09 03:30N 26°07' W 080°07'2 3.5
2017-Dec-09 03:00N 26°08' W 080°06'1 2.5
2017-Dec-09 02:30N 26°10' W 080°06'1 3.0
2017-Dec-09 02:00N 26°08' W 080°07'2 3.0
2017-Dec-09 01:30N 26°07' W 080°07'1 2.5
2017-Dec-09 01:00N 26°07' W 080°08'0 0.0
2017-Dec-09 00:30N 26°07' W 080°08'0 0.0
2017-Dec-08 05:22N 26°07' W 080°08'1 1.5
2017-Dec-08 05:00N 26°07' W 080°08'1 2.5
2017-Dec-08 04:30N 26°06' W 080°07'1 1.3
2017-Dec-08 04:00N 26°06' W 080°06'1 2.4
2017-Dec-08 03:30N 26°07' W 080°07'1 2.6
2017-Dec-08 03:00N 26°08' W 080°07'2 4.5
2017-Dec-08 02:30N 26°06' W 080°07'2 3.5
2017-Dec-08 02:00N 26°07' W 080°08'0 0.0
2017-Dec-08 01:30N 26°07' W 080°08'0 0.0
2017-Dec-08 01:00N 26°07' W 080°08'0 0.0
2017-Dec-08 00:30N 26°07' W 080°08'0 0.0
2017-Dec-08 00:00N 26°07' W 080°08'0 0.0
2017-Dec-07 23:30N 26°07' W 080°08'0 0.0
2017-Dec-07 23:00N 26°07' W 080°08'  
2017-Dec-04 02:49N 26°07' W 080°08'1 2.8
2017-Dec-04 02:30N 26°07' W 080°07'0 0.7
2017-Dec-04 02:00N 26°07' W 080°07'2 3.4
2017-Dec-04 01:30N 26°08' W 080°06'1 2.6
2017-Dec-04 01:00N 26°10' W 080°06'2 3.2
2017-Dec-04 00:30N 26°08' W 080°07'1 2.7
2017-Dec-04 00:00N 26°07' W 080°07'2 3.1
2017-Dec-03 23:30N 26°07' W 080°08'0 0.0
2017-Dec-03 23:00N 26°07' W 080°08'0 0.0
2017-Dec-03 22:30N 26°07' W 080°08'0 0.0
2017-Dec-03 22:00N 26°07' W 080°08'0 0.0
2017-Dec-03 21:30N 26°07' W 080°08'0 0.0
2017-Dec-03 21:00N 26°07' W 080°08'0 0.0
2017-Dec-03 20:30N 26°07' W 080°08'0 0.0
2017-Dec-03 03:38N 26°07' W 080°08'0 0.0
2017-Dec-03 03:30N 26°07' W 080°08'0 0.0
2017-Dec-03 02:58N 26°07' W 080°08'1 2.1
2017-Dec-03 02:30N 26°07' W 080°07'0 0.5
2017-Dec-03 02:00N 26°07' W 080°07'2 3.6
2017-Dec-03 01:30N 26°08' W 080°06'1 2.7
2017-Dec-03 01:00N 26°10' W 080°06'2 3.2
2017-Dec-03 00:30N 26°08' W 080°07'1 2.9
2017-Dec-02 23:59N 26°07' W 080°07'1 2.7
2017-Dec-02 23:30N 26°07' W 080°08'0 0.0
2017-Dec-02 23:00N 26°07' W 080°08'0 0.0
2017-Dec-02 22:30N 26°07' W 080°08'0 0.0
2017-Dec-02 04:24N 26°07' W 080°08'0 0.0
2017-Dec-02 04:00N 26°07' W 080°08'1 1.5
2017-Dec-02 03:30N 26°07' W 080°07'1 1.9
2017-Dec-02 03:00N 26°08' W 080°07'1 2.1
2017-Dec-02 02:30N 26°07' W 080°07'2 3.2
2017-Dec-02 02:00N 26°05' W 080°07'0 0.3
2017-Dec-02 01:30N 26°05' W 080°07'2 4.4
2017-Dec-02 01:00N 26°07' W 080°08'0 0.7
2017-Dec-02 00:29N 26°07' W 080°08'  

Dump ship's entire track history